createdAt,value
2023-03-06T00:01:35.531Z,73.15
2023-03-06T00:04:37.466Z,73.60
2023-03-06T00:07:39.538Z,73.55
2023-03-06T00:10:41.485Z,73.60
2023-03-06T00:13:43.342Z,73.17
2023-03-06T00:16:45.219Z,73.81
2023-03-06T00:19:47.251Z,73.37
2023-03-06T00:22:49.717Z,73.42
2023-03-06T00:25:51.952Z,73.79
2023-03-06T00:28:53.858Z,73.97
2023-03-06T00:31:55.873Z,74.54
2023-03-06T00:34:57.879Z,74.32
2023-03-06T00:37:59.950Z,74.07
2023-03-06T00:41:10.463Z,74.40
2023-03-06T00:44:12.387Z,74.94
2023-03-06T00:47:17.376Z,74.64
2023-03-06T00:50:19.358Z,74.62
2023-03-06T00:53:21.305Z,74.79
2023-03-06T00:56:24.138Z,74.54
2023-03-06T00:59:27.695Z,74.64
2023-03-06T01:02:29.641Z,74.45
2023-03-06T01:05:34.795Z,74.09
2023-03-06T01:08:40.689Z,73.68
2023-03-06T01:11:42.627Z,73.93
2023-03-06T01:14:48.156Z,73.95
2023-03-06T01:17:57.177Z,74.23
2023-03-06T01:21:01.459Z,74.31
2023-03-06T01:24:06.614Z,74.48
2023-03-06T01:27:08.573Z,74.11
2023-03-06T01:30:11.628Z,74.27
2023-03-06T01:33:14.766Z,74.65
2023-03-06T01:36:19.077Z,74.40
2023-03-06T01:39:21.016Z,74.18
2023-03-06T01:42:23.006Z,74.20
2023-03-06T01:45:24.865Z,74.72
2023-03-06T01:48:26.898Z,74.92
2023-03-06T01:51:37.780Z,74.92
2023-03-06T01:54:46.749Z,74.76
2023-03-06T01:57:53.324Z,75.10
2023-03-06T02:00:55.363Z,75.10
2023-03-06T02:04:01.577Z,75.08
2023-03-06T02:07:05.001Z,75.35
2023-03-06T02:10:10.215Z,75.54
2023-03-06T02:13:12.146Z,75.42
2023-03-06T02:16:14.833Z,75.34
2023-03-06T02:19:43.412Z,75.74
2023-03-06T02:23:03.968Z,75.51
2023-03-06T02:26:08.539Z,75.24
2023-03-06T02:29:10.892Z,75.64
2023-03-06T02:32:12.930Z,75.35
2023-03-06T02:35:38.671Z,75.26
2023-03-06T02:38:48.560Z,75.44
2023-03-06T02:41:51.080Z,75.66
2023-03-06T02:44:57.267Z,75.75
2023-03-06T02:48:00.499Z,76.15
2023-03-06T02:51:03.771Z,76.06
2023-03-06T02:54:07.374Z,75.77
2023-03-06T02:57:09.351Z,76.20
2023-03-06T03:00:12.293Z,76.21
2023-03-06T03:03:17.019Z,76.17
2023-03-06T03:06:18.886Z,76.27
2023-03-06T03:09:21.561Z,76.74
2023-03-06T03:12:23.758Z,76.34
2023-03-06T03:15:26.295Z,76.12
2023-03-06T03:18:29.069Z,76.81
2023-03-06T03:21:31.205Z,76.80
2023-03-06T03:24:33.697Z,76.60
2023-03-06T03:27:35.965Z,77.03
2023-03-06T03:30:41.108Z,76.63
2023-03-06T03:33:44.207Z,76.95
2023-03-06T03:36:49.838Z,77.14
2023-03-06T03:39:52.018Z,76.74
2023-03-06T03:42:54.057Z,77.17
2023-03-06T03:45:55.877Z,77.23
2023-03-06T03:49:01.986Z,77.23
2023-03-06T03:52:04.300Z,77.07
2023-03-06T03:55:09.354Z,76.88
2023-03-06T03:58:13.595Z,76.60
2023-03-06T04:01:15.974Z,76.58
2023-03-06T04:04:21.258Z,76.56
2023-03-06T04:07:23.872Z,77.34
2023-03-06T04:10:25.766Z,77.19
2023-03-06T04:13:30.129Z,77.10
2023-03-06T04:16:37.072Z,77.29
2023-03-06T04:19:39.156Z,77.21
2023-03-06T04:22:42.296Z,77.07
2023-03-06T04:25:46.034Z,77.03
2023-03-06T04:28:48.546Z,77.61
2023-03-06T04:31:50.971Z,77.42
2023-03-06T04:34:52.850Z,77.43
2023-03-06T04:37:55.532Z,77.33
2023-03-06T04:40:58.987Z,77.10
2023-03-06T04:44:01.123Z,77.34
2023-03-06T04:47:03.186Z,77.62
2023-03-06T04:50:05.936Z,77.96
2023-03-06T04:53:08.787Z,77.62
2023-03-06T04:56:10.763Z,77.74
2023-03-06T04:59:12.672Z,77.70
2023-03-06T05:02:14.566Z,76.52
2023-03-06T05:05:18.865Z,77.03
2023-03-06T05:08:20.966Z,76.75
2023-03-06T05:11:22.910Z,76.75
2023-03-06T05:14:24.862Z,77.15
2023-03-06T05:17:26.829Z,76.63
2023-03-06T05:20:30.929Z,76.97
2023-03-06T05:23:35.496Z,76.43
2023-03-06T05:26:37.410Z,76.14
2023-03-06T05:29:41.984Z,76.03
2023-03-06T05:32:47.186Z,75.98
2023-03-06T05:35:51.569Z,75.47
2023-03-06T05:38:53.549Z,75.57
2023-03-06T05:41:55.487Z,75.12
2023-03-06T05:44:57.311Z,75.19
2023-03-06T05:47:59.179Z,74.92
2023-03-06T05:51:02.397Z,74.71
2023-03-06T05:54:04.329Z,75.02
2023-03-06T05:57:06.426Z,74.42
2023-03-06T06:00:09.289Z,74.51
2023-03-06T06:03:20.565Z,74.54
2023-03-06T06:06:22.378Z,74.01
2023-03-06T06:09:25.503Z,74.02
2023-03-06T06:12:27.862Z,73.55
2023-03-06T06:15:33.007Z,73.48
2023-03-06T06:18:35.030Z,73.73
2023-03-06T06:21:40.349Z,73.33
2023-03-06T06:24:42.322Z,72.96
2023-03-06T06:27:44.326Z,73.20
2023-03-06T06:30:46.229Z,72.93
2023-03-06T06:33:48.248Z,73.07
2023-03-06T06:36:53.425Z,72.46
2023-03-06T06:39:55.665Z,72.34
2023-03-06T06:42:57.519Z,72.31
2023-03-06T06:46:16.455Z,72.18
2023-03-06T06:49:21.389Z,72.05
2023-03-06T06:52:24.756Z,71.75
2023-03-06T06:55:27.212Z,71.24
2023-03-06T06:58:29.052Z,71.26
2023-03-06T07:01:31.063Z,70.61
2023-03-06T07:04:33.212Z,70.44
2023-03-06T07:07:40.572Z,70.71
2023-03-06T07:10:42.492Z,70.79
2023-03-06T07:13:47.060Z,70.01
2023-03-06T07:16:49.028Z,69.70
2023-03-06T07:19:53.417Z,69.30
2023-03-06T07:22:56.591Z,69.15
2023-03-06T07:25:58.582Z,69.32
2023-03-06T07:29:00.568Z,68.75
2023-03-06T07:32:05.143Z,68.47
2023-03-06T07:35:19.661Z,68.30
2023-03-06T07:38:22.310Z,67.59
2023-03-06T07:41:24.167Z,67.70
2023-03-06T07:44:27.831Z,67.76
2023-03-06T07:47:29.746Z,67.38
2023-03-06T07:50:32.952Z,67.13
2023-03-06T07:53:35.500Z,67.25
2023-03-06T07:56:37.422Z,66.35
2023-03-06T07:59:39.365Z,66.08
2023-03-06T08:03:41.967Z,65.84
2023-03-06T08:06:43.820Z,65.35
2023-03-06T08:09:48.184Z,65.67
2023-03-06T08:12:50.029Z,65.84
2023-03-06T08:15:51.910Z,65.84
2023-03-06T08:18:54.076Z,66.12
2023-03-06T08:21:56.032Z,66.00
2023-03-06T08:24:57.911Z,65.72
2023-03-06T08:28:00.869Z,65.43
2023-03-06T08:31:13.037Z,64.52
2023-03-06T08:34:20.084Z,64.70
2023-03-06T08:37:24.111Z,64.25
2023-03-06T08:40:30.454Z,64.49
2023-03-06T08:43:32.368Z,64.69
2023-03-06T08:46:35.807Z,64.94
2023-03-06T08:49:39.717Z,64.79
2023-03-06T08:52:41.596Z,64.81
2023-03-06T08:55:43.603Z,64.75
2023-03-06T08:58:46.061Z,64.49
2023-03-06T09:01:48.050Z,64.91
2023-03-06T09:04:50.059Z,65.12
2023-03-06T09:07:52.110Z,65.52
2023-03-06T09:10:55.107Z,65.38
2023-03-06T09:13:59.798Z,65.68
2023-03-06T09:17:01.765Z,66.09
2023-03-06T09:20:06.098Z,66.53
2023-03-06T09:23:12.201Z,67.21
2023-03-06T09:26:14.403Z,67.88
2023-03-06T09:29:17.212Z,68.08
2023-03-06T09:32:19.382Z,68.86
2023-03-06T09:35:21.396Z,69.10
2023-03-06T09:38:27.837Z,68.92
2023-03-06T09:41:33.162Z,68.88
2023-03-06T09:44:38.687Z,68.71
2023-03-06T09:48:02.124Z,68.18
2023-03-06T09:51:13.912Z,66.84
2023-03-06T09:54:16.432Z,66.97
2023-03-06T09:57:31.999Z,65.03
2023-03-06T10:00:46.792Z,64.67
2023-03-06T10:04:03.710Z,65.50
2023-03-06T10:07:15.739Z,64.89
2023-03-06T10:10:42.808Z,64.78
2023-03-06T10:13:51.964Z,63.19
2023-03-06T10:16:54.712Z,63.17
2023-03-06T10:19:59.045Z,63.16
2023-03-06T10:23:23.695Z,63.22
2023-03-06T10:26:36.376Z,62.67
2023-03-06T10:30:06.876Z,61.99
2023-03-06T10:33:12.592Z,61.86
2023-03-06T10:36:19.372Z,61.79
2023-03-06T10:39:22.988Z,61.40
2023-03-06T10:42:25.069Z,61.06
2023-03-06T10:45:35.205Z,60.53
2023-03-06T10:48:42.877Z,60.38
2023-03-06T10:52:03.239Z,60.06
2023-03-06T10:55:26.011Z,60.50
2023-03-06T10:58:30.662Z,60.40
2023-03-06T11:01:32.849Z,60.34
2023-03-06T11:04:36.610Z,59.91
2023-03-06T11:07:54.254Z,59.45
2023-03-06T11:11:09.264Z,59.22
2023-03-06T11:14:22.965Z,60.00
2023-03-06T11:17:32.176Z,60.17
2023-03-06T11:20:52.622Z,61.27
2023-03-06T11:23:58.963Z,61.26
2023-03-06T11:27:09.361Z,61.60
2023-03-06T11:30:27.041Z,61.56
2023-03-06T11:33:46.515Z,61.60
2023-03-06T11:36:56.576Z,62.13
2023-03-06T11:40:10.632Z,62.67
2023-03-06T11:43:31.871Z,62.89
2023-03-06T11:46:48.771Z,62.71
2023-03-06T11:50:20.471Z,63.28
2023-03-06T11:53:44.402Z,64.19
2023-03-06T11:56:59.962Z,63.21
2023-03-06T12:00:05.084Z,63.56
2023-03-06T12:03:25.988Z,63.87
2023-03-06T12:06:51.627Z,63.81
2023-03-06T12:10:32.770Z,63.76
2023-03-06T12:14:10.262Z,64.19
2023-03-06T12:17:23.966Z,64.71
2023-03-06T12:20:40.175Z,64.67
2023-03-06T12:24:16.237Z,64.39
2023-03-06T12:27:33.286Z,64.84
2023-03-06T12:31:06.010Z,64.97
2023-03-06T12:34:18.747Z,65.58
2023-03-06T12:37:31.062Z,65.47
2023-03-06T12:40:51.682Z,65.68
2023-03-06T12:43:59.394Z,65.91
2023-03-06T12:47:10.420Z,65.47
2023-03-06T12:50:23.573Z,64.35
2023-03-06T12:53:28.062Z,64.27
2023-03-06T12:56:34.119Z,64.78
2023-03-06T12:59:39.309Z,64.71
2023-03-06T13:03:06.649Z,66.91
2023-03-06T13:06:25.581Z,67.55
2023-03-06T13:09:56.842Z,68.10
2023-03-06T13:13:05.156Z,67.75
2023-03-06T13:16:21.569Z,67.34
2023-03-06T13:19:27.648Z,67.53
2023-03-06T13:22:30.045Z,67.15
2023-03-06T13:25:32.747Z,66.83
2023-03-06T13:28:53.288Z,67.05
2023-03-06T13:32:06.179Z,67.27
2023-03-06T13:35:32.257Z,67.75
2023-03-06T13:38:53.160Z,67.63
2023-03-06T13:42:03.373Z,67.58
2023-03-06T13:45:15.685Z,66.89
2023-03-06T13:48:47.672Z,66.03
2023-03-06T13:52:19.520Z,65.82
2023-03-06T13:55:50.530Z,66.09
2023-03-06T13:59:14.329Z,66.31
2023-03-06T14:02:37.399Z,65.76
2023-03-06T14:05:48.729Z,65.55
2023-03-06T14:08:51.248Z,65.16
2023-03-06T14:12:02.424Z,63.83
2023-03-06T14:15:16.417Z,64.16
2023-03-06T14:18:40.009Z,63.51
2023-03-06T14:21:51.228Z,62.41
2023-03-06T14:25:00.760Z,61.62
2023-03-06T14:28:13.545Z,61.44
2023-03-06T14:31:21.318Z,61.67
2023-03-06T14:34:25.206Z,61.54
2023-03-06T14:37:29.125Z,61.71
2023-03-06T14:40:44.071Z,61.38
2023-03-06T14:43:46.165Z,60.99
2023-03-06T14:46:50.816Z,61.74
2023-03-06T14:50:30.394Z,61.89
2023-03-06T14:53:34.251Z,62.46
2023-03-06T14:56:42.085Z,62.63
2023-03-06T14:59:58.746Z,62.75
2023-03-06T15:03:01.347Z,62.96
2023-03-06T15:06:08.892Z,62.76
2023-03-06T15:09:25.547Z,62.14
2023-03-06T15:12:27.358Z,62.50
2023-03-06T15:15:32.662Z,62.62
2023-03-06T15:18:39.040Z,62.52
2023-03-06T15:21:41.057Z,62.65
2023-03-06T15:24:43.004Z,62.66
2023-03-06T15:27:56.914Z,62.94
2023-03-06T15:31:23.522Z,62.90
2023-03-06T15:34:25.692Z,63.47
2023-03-06T15:37:28.967Z,63.37
2023-03-06T15:40:31.981Z,63.75
2023-03-06T15:43:42.238Z,63.74
2023-03-06T15:46:44.358Z,63.78
2023-03-06T15:49:46.461Z,63.91
2023-03-06T15:52:49.518Z,64.36
2023-03-06T15:55:53.267Z,64.98
2023-03-06T15:58:56.400Z,64.85
2023-03-06T16:02:02.600Z,65.07
2023-03-06T16:05:17.661Z,65.02
2023-03-06T16:08:19.839Z,65.44
2023-03-06T16:11:41.920Z,65.87
2023-03-06T16:14:49.071Z,66.14
2023-03-06T16:17:56.146Z,66.29
2023-03-06T16:20:59.112Z,66.43
2023-03-06T16:24:00.929Z,66.89
2023-03-06T16:27:03.188Z,66.42
2023-03-06T16:30:05.591Z,66.67
2023-03-06T16:33:10.655Z,66.88
2023-03-06T16:36:14.831Z,66.73
2023-03-06T16:39:22.344Z,67.18
2023-03-06T16:42:24.253Z,67.12
2023-03-06T16:45:26.616Z,67.27
2023-03-06T16:48:28.514Z,67.52
2023-03-06T16:51:33.373Z,67.49
2023-03-06T16:54:35.166Z,67.67
2023-03-06T16:57:37.062Z,67.87
2023-03-06T17:00:41.296Z,67.56
2023-03-06T17:03:43.416Z,68.25
2023-03-06T17:06:47.680Z,68.32
2023-03-06T17:09:50.583Z,68.59
2023-03-06T17:12:52.461Z,68.78
2023-03-06T17:15:59.527Z,68.79
2023-03-06T17:19:02.513Z,68.96
2023-03-06T17:22:04.456Z,68.83
2023-03-06T17:25:09.298Z,68.99
2023-03-06T17:28:11.455Z,69.35
2023-03-06T17:31:18.868Z,69.79
2023-03-06T17:34:22.077Z,70.09
2023-03-06T17:37:25.567Z,70.13
2023-03-06T17:40:30.577Z,69.96
2023-03-06T17:43:32.625Z,70.17
2023-03-06T17:46:36.906Z,70.40
2023-03-06T17:49:38.805Z,70.47
2023-03-06T17:52:43.575Z,70.77
2023-03-06T17:55:45.562Z,70.70
2023-03-06T17:58:49.934Z,71.09
2023-03-06T18:01:51.825Z,71.05
2023-03-06T18:04:58.744Z,70.98
2023-03-06T18:08:00.687Z,71.07
2023-03-06T18:11:04.431Z,71.59
2023-03-06T18:14:06.323Z,71.59
2023-03-06T18:17:08.258Z,72.29
2023-03-06T18:20:12.887Z,72.51
2023-03-06T18:23:14.815Z,72.18
2023-03-06T18:26:24.158Z,72.10
2023-03-06T18:29:28.285Z,72.38
2023-03-06T18:32:30.236Z,72.34
2023-03-06T18:35:36.018Z,72.15
2023-03-06T18:38:45.728Z,72.37
2023-03-06T18:41:47.860Z,72.37
2023-03-06T18:44:49.764Z,72.42
2023-03-06T18:47:51.741Z,72.15
2023-03-06T18:50:53.725Z,72.68
2023-03-06T18:54:00.371Z,73.17
2023-03-06T18:57:05.124Z,73.19
2023-03-06T19:00:08.273Z,73.37
2023-03-06T19:03:13.563Z,73.37
2023-03-06T19:06:21.349Z,73.46
2023-03-06T19:09:23.239Z,73.39
2023-03-06T19:12:25.065Z,73.29
2023-03-06T19:15:26.916Z,73.37
2023-03-06T19:18:31.857Z,73.80
2023-03-06T19:21:33.787Z,74.16
2023-03-06T19:24:35.696Z,74.42
2023-03-06T19:27:39.988Z,74.49
2023-03-06T19:30:41.897Z,74.79
2023-03-06T19:33:44.096Z,74.58
2023-03-06T19:36:45.877Z,74.32
2023-03-06T19:39:47.720Z,74.21
2023-03-06T19:42:50.334Z,74.16
2023-03-06T19:45:52.277Z,74.20
2023-03-06T19:48:59.161Z,74.09
2023-03-06T19:52:01.558Z,74.08
2023-03-06T19:55:03.692Z,73.97
2023-03-06T19:58:05.999Z,74.25
2023-03-06T20:01:11.230Z,74.22
2023-03-06T20:04:13.144Z,74.09
2023-03-06T20:07:15.043Z,74.05
2023-03-06T20:10:17.413Z,74.09
2023-03-06T20:13:19.268Z,73.63
2023-03-06T20:16:21.151Z,73.34
2023-03-06T20:19:22.999Z,73.23
2023-03-06T20:22:25.226Z,73.05
2023-03-06T20:25:27.101Z,73.25
2023-03-06T20:28:28.987Z,73.37
2023-03-06T20:31:31.220Z,73.41
2023-03-06T20:34:33.215Z,73.88
2023-03-06T20:37:35.155Z,74.04
2023-03-06T20:40:42.432Z,74.15
2023-03-06T20:43:44.584Z,73.73
2023-03-06T20:46:49.939Z,73.61
2023-03-06T20:49:51.838Z,73.36
2023-03-06T20:52:58.484Z,73.23
2023-03-06T20:56:00.314Z,73.28
2023-03-06T20:59:03.232Z,73.07
2023-03-06T21:02:09.732Z,73.22
2023-03-06T21:05:11.716Z,73.67
2023-03-06T21:08:14.583Z,73.32
2023-03-06T21:11:18.459Z,73.48
2023-03-06T21:14:20.348Z,73.72
2023-03-06T21:17:22.158Z,73.59
2023-03-06T21:20:24.438Z,73.46
2023-03-06T21:23:26.351Z,73.92
2023-03-06T21:26:30.144Z,73.75
2023-03-06T21:29:32.112Z,73.97
2023-03-06T21:32:36.674Z,74.12
2023-03-06T21:35:40.313Z,73.93
2023-03-06T21:38:44.809Z,74.08
2023-03-06T21:41:46.706Z,74.18
2023-03-06T21:44:51.003Z,73.99
2023-03-06T21:47:55.705Z,75.11
2023-03-06T21:51:05.020Z,75.06
2023-03-06T21:54:07.247Z,75.29
2023-03-06T21:57:09.088Z,75.46
2023-03-06T22:00:12.939Z,75.15
2023-03-06T22:03:14.851Z,74.87
2023-03-06T22:06:31.414Z,74.73
2023-03-06T22:09:36.076Z,74.41
2023-03-06T22:12:43.537Z,74.28
2023-03-06T22:15:55.203Z,74.16
2023-03-06T22:18:57.154Z,74.26
2023-03-06T22:21:59.020Z,74.12
2023-03-06T22:25:00.870Z,74.21
2023-03-06T22:28:05.311Z,74.07
2023-03-06T22:31:15.641Z,74.11
2023-03-06T22:34:17.865Z,73.99
2023-03-06T22:37:21.988Z,74.06
2023-03-06T22:40:24.213Z,74.36
2023-03-06T22:43:27.578Z,74.12
2023-03-06T22:46:30.463Z,74.26
2023-03-06T22:49:32.770Z,74.47
2023-03-06T22:52:37.055Z,74.61
2023-03-06T22:55:38.871Z,74.64
2023-03-06T22:58:40.913Z,74.65
2023-03-06T23:01:43.955Z,74.72
2023-03-06T23:04:48.503Z,75.03
2023-03-06T23:07:51.301Z,74.86
2023-03-06T23:10:53.245Z,74.81
2023-03-06T23:14:16.615Z,74.66
2023-03-06T23:17:39.227Z,75.30
2023-03-06T23:21:01.905Z,74.97
2023-03-06T23:24:22.599Z,74.92
2023-03-06T23:27:24.462Z,74.94
2023-03-06T23:30:26.679Z,75.24
2023-03-06T23:33:28.629Z,75.15
2023-03-06T23:36:31.259Z,75.25
2023-03-06T23:39:33.743Z,75.24
2023-03-06T23:42:35.783Z,75.47
2023-03-06T23:45:37.671Z,75.45
2023-03-06T23:48:40.893Z,75.60
2023-03-06T23:51:42.794Z,75.53
2023-03-06T23:54:44.622Z,75.80
2023-03-06T23:57:46.621Z,75.68
